createdAt,value
2023-03-03T00:00:18.415Z,1.88
2023-03-03T00:05:20.982Z,2.55
2023-03-03T00:10:23.602Z,2.80
2023-03-03T00:15:27.072Z,3.92
2023-03-03T00:20:37.341Z,5.07
2023-03-03T00:25:44.529Z,1.25
2023-03-03T00:30:47.207Z,1.27
2023-03-03T00:35:49.931Z,1.10
2023-03-03T00:40:52.648Z,2.05
2023-03-03T00:45:56.810Z,1.77
2023-03-03T00:51:01.874Z,2.63
2023-03-03T00:56:04.593Z,2.00
2023-03-03T01:01:07.361Z,1.33
2023-03-03T01:06:17.944Z,3.22
2023-03-03T01:11:24.914Z,1.10
2023-03-03T01:16:27.801Z,5.78
2023-03-03T01:21:30.560Z,1.88
2023-03-03T01:26:33.195Z,0.80
2023-03-03T01:31:36.386Z,1.60
2023-03-03T01:36:39.041Z,1.27
2023-03-03T01:41:41.756Z,1.27
2023-03-03T01:47:07.396Z,3.20
2023-03-03T01:52:38.338Z,1.35
2023-03-03T01:57:46.884Z,3.28
2023-03-03T02:02:49.989Z,2.85
2023-03-03T02:07:52.888Z,0.95
2023-03-03T02:12:58.235Z,2.50
2023-03-03T02:18:07.696Z,1.42
2023-03-03T02:23:38.571Z,2.08
2023-03-03T02:28:41.814Z,2.40
2023-03-03T02:39:07.696Z,3.58
2023-03-03T02:44:16.320Z,3.17
2023-03-03T02:49:25.034Z,3.17
2023-03-03T02:54:32.834Z,2.28
2023-03-03T02:59:37.891Z,3.08
2023-03-03T03:04:49.276Z,2.13
2023-03-03T03:09:57.011Z,3.17
2023-03-03T03:14:59.693Z,1.67
2023-03-03T03:20:02.417Z,3.22
2023-03-03T03:25:06.824Z,1.42
2023-03-03T03:30:10.294Z,3.22
2023-03-03T03:35:13.748Z,2.85
2023-03-03T03:40:16.525Z,3.72
2023-03-03T03:45:20.391Z,1.77
2023-03-03T03:50:23.852Z,2.85
2023-03-03T03:55:26.575Z,4.63
2023-03-03T04:00:29.390Z,6.00
2023-03-03T04:05:35.592Z,3.03
2023-03-03T04:10:39.402Z,3.95
2023-03-03T04:15:42.958Z,7.65
2023-03-03T04:20:45.941Z,9.77
2023-03-03T04:25:49.900Z,7.47
2023-03-03T04:30:53.153Z,3.58
2023-03-03T04:35:57.504Z,4.53
2023-03-03T04:41:00.674Z,1.98
2023-03-03T04:46:07.630Z,1.30
2023-03-03T04:51:13.106Z,4.22
2023-03-03T04:56:15.859Z,9.48
2023-03-03T05:01:19.860Z,3.17
2023-03-03T05:06:23.089Z,2.80
2023-03-03T05:11:25.788Z,5.40
2023-03-03T05:16:28.469Z,7.88
2023-03-03T05:21:31.454Z,6.30
2023-03-03T05:26:34.117Z,1.60
2023-03-03T05:31:37.225Z,3.97
2023-03-03T05:36:40.024Z,4.68
2023-03-03T05:41:42.754Z,5.05
2023-03-03T05:46:45.635Z,2.30
2023-03-03T05:51:48.268Z,2.40
2023-03-03T05:56:51.639Z,4.40
2023-03-03T06:01:54.431Z,3.05
2023-03-03T06:06:57.178Z,2.80
2023-03-03T06:11:59.821Z,3.20
2023-03-03T06:17:02.489Z,4.75
2023-03-03T06:22:07.112Z,6.22
2023-03-03T06:27:10.393Z,4.65
2023-03-03T06:32:14.137Z,1.25
2023-03-03T06:37:16.907Z,1.77
2023-03-03T06:42:20.134Z,4.97
2023-03-03T06:47:22.737Z,1.27
2023-03-03T06:52:27.382Z,7.82
2023-03-03T06:57:34.880Z,3.80
2023-03-03T07:02:37.486Z,5.32
2023-03-03T07:07:40.241Z,12.13
2023-03-03T07:12:43.148Z,2.90
2023-03-03T07:17:50.916Z,9.02
2023-03-03T07:22:53.996Z,6.30
2023-03-03T07:28:00.884Z,7.03
2023-03-03T07:33:05.877Z,3.38
2023-03-03T07:38:18.314Z,3.08
2023-03-03T07:43:30.065Z,2.92
2023-03-03T07:48:37.410Z,3.20
2023-03-03T07:53:40.075Z,4.15
2023-03-03T07:58:43.010Z,10.00
2023-03-03T08:03:51.208Z,3.25
2023-03-03T08:08:53.796Z,4.57
2023-03-03T08:13:57.362Z,7.28
2023-03-03T08:19:02.631Z,3.90
2023-03-03T08:24:05.493Z,7.18
2023-03-03T08:29:08.044Z,13.13
2023-03-03T08:34:10.551Z,3.70
2023-03-03T08:39:13.551Z,7.28
2023-03-03T08:44:16.357Z,8.75
2023-03-03T08:49:18.928Z,9.65
2023-03-03T08:54:21.642Z,9.13
2023-03-03T08:59:24.145Z,6.15
2023-03-03T09:04:27.769Z,8.35
2023-03-03T09:09:30.843Z,6.68
2023-03-03T09:14:33.392Z,6.00
2023-03-03T09:19:37.820Z,7.20
2023-03-03T09:24:43.273Z,11.40
2023-03-03T09:34:49.248Z,9.57
2023-03-03T09:39:54.842Z,5.97
2023-03-03T09:45:15.445Z,7.70
2023-03-03T09:50:26.879Z,5.53
2023-03-03T09:56:09.582Z,4.82
2023-03-03T10:01:39.547Z,12.88
2023-03-03T10:06:56.452Z,10.05
2023-03-03T10:12:37.307Z,6.63
2023-03-03T10:18:09.037Z,11.35
2023-03-03T10:23:21.291Z,9.73
2023-03-03T10:28:30.866Z,13.38
2023-03-03T10:33:40.225Z,6.50
2023-03-03T10:39:20.551Z,8.02
2023-03-03T10:44:27.281Z,10.73
2023-03-03T10:49:48.376Z,11.77
2023-03-03T10:55:28.476Z,11.52
2023-03-03T11:00:39.298Z,13.32
2023-03-03T11:06:09.910Z,9.50
2023-03-03T11:11:41.304Z,7.80
2023-03-03T11:17:11.306Z,7.90
2023-03-03T11:22:51.930Z,8.20
2023-03-03T11:28:03.074Z,10.38
2023-03-03T11:33:13.179Z,8.02
2023-03-03T11:38:33.610Z,6.40
2023-03-03T11:43:47.794Z,8.93
2023-03-03T11:49:05.468Z,8.27
2023-03-03T11:54:20.334Z,10.85
2023-03-03T11:59:32.997Z,13.15
2023-03-03T12:04:53.673Z,6.05
2023-03-03T12:10:10.872Z,10.57
2023-03-03T12:15:25.450Z,11.95
2023-03-03T12:20:30.820Z,7.35
2023-03-03T12:31:37.012Z,14.65
2023-03-03T12:36:57.125Z,8.90
2023-03-03T12:42:25.909Z,9.90
2023-03-03T12:47:51.740Z,11.60
2023-03-03T12:53:18.740Z,6.32
2023-03-03T12:59:11.885Z,13.02
2023-03-03T13:04:54.239Z,7.00
2023-03-03T13:10:21.217Z,6.88
2023-03-03T13:15:38.061Z,11.65
2023-03-03T13:20:54.662Z,10.63
2023-03-03T13:26:17.147Z,10.88
2023-03-03T13:31:22.711Z,7.47
2023-03-03T13:36:51.125Z,11.82
2023-03-03T13:42:32.362Z,12.95
2023-03-03T13:47:56.647Z,9.57
2023-03-03T13:53:19.048Z,10.88
2023-03-03T13:58:45.760Z,14.60
2023-03-03T14:04:03.045Z,5.75
2023-03-03T14:10:08.670Z,8.82
2023-03-03T14:15:36.324Z,10.75
2023-03-03T14:20:47.338Z,10.90
2023-03-03T14:26:17.929Z,6.90
2023-03-03T14:31:55.503Z,10.48
2023-03-03T14:37:51.424Z,7.28
2023-03-03T14:42:56.189Z,10.30
2023-03-03T14:48:00.380Z,12.88
2023-03-03T14:53:24.040Z,6.45
2023-03-03T14:58:31.817Z,7.43
2023-03-03T15:03:39.536Z,11.30
2023-03-03T15:08:43.693Z,9.40
2023-03-03T15:13:47.559Z,7.97
2023-03-03T15:19:31.277Z,9.70
2023-03-03T15:24:47.542Z,10.40
2023-03-03T15:30:20.328Z,12.60
2023-03-03T15:35:48.839Z,15.57
2023-03-03T15:41:36.038Z,11.73
2023-03-03T15:46:58.100Z,8.80
2023-03-03T15:52:23.267Z,10.65
2023-03-03T15:57:45.102Z,5.30
2023-03-03T16:02:51.935Z,11.98
2023-03-03T16:13:26.611Z,7.78
2023-03-03T16:18:39.182Z,9.63
2023-03-03T16:24:32.460Z,11.07
2023-03-03T16:29:43.943Z,7.82
2023-03-03T16:34:56.854Z,11.07
2023-03-03T16:40:10.067Z,11.30
2023-03-03T16:45:23.852Z,12.27
2023-03-03T16:50:45.218Z,9.57
2023-03-03T16:56:08.788Z,17.20
2023-03-03T17:01:39.595Z,7.30
2023-03-03T17:07:00.129Z,8.43
2023-03-03T17:12:08.720Z,9.65
2023-03-03T17:17:17.572Z,9.57
2023-03-03T17:22:29.999Z,9.63
2023-03-03T17:27:58.067Z,10.18
2023-03-03T17:33:32.388Z,7.70
2023-03-03T17:38:40.957Z,13.73
2023-03-03T17:43:58.167Z,9.90
2023-03-03T17:49:11.198Z,15.25
2023-03-03T17:54:39.129Z,12.50
2023-03-03T17:59:51.100Z,11.40
2023-03-03T18:05:12.137Z,6.55
2023-03-03T18:10:42.927Z,8.77
2023-03-03T18:16:12.657Z,5.78
2023-03-03T18:21:21.273Z,9.93
2023-03-03T18:26:40.279Z,6.95
2023-03-03T18:32:04.893Z,6.22
2023-03-03T18:37:32.696Z,7.90
2023-03-03T18:42:43.326Z,8.13
2023-03-03T18:48:13.175Z,4.75
2023-03-03T18:53:18.297Z,7.63
2023-03-03T18:58:20.683Z,7.57
2023-03-03T19:03:29.182Z,6.30
2023-03-03T19:08:43.933Z,6.05
2023-03-03T19:13:47.144Z,8.20
2023-03-03T19:18:49.665Z,8.45
2023-03-03T19:24:04.789Z,8.13
2023-03-03T19:29:16.281Z,13.57
2023-03-03T19:34:25.785Z,6.68
2023-03-03T19:39:59.102Z,6.20
2023-03-03T19:45:12.512Z,7.93
2023-03-03T19:50:33.001Z,9.23
2023-03-03T19:55:43.677Z,6.97
2023-03-03T20:01:01.213Z,7.65
2023-03-03T20:06:09.353Z,5.90
2023-03-03T20:11:48.648Z,9.82
2023-03-03T20:16:57.826Z,6.75
2023-03-03T20:22:27.545Z,3.30
2023-03-03T20:27:40.084Z,6.82
2023-03-03T20:33:27.046Z,7.82
2023-03-03T20:38:49.771Z,4.90
2023-03-03T20:44:12.624Z,4.30
2023-03-03T20:49:42.754Z,3.35
2023-03-03T20:54:56.996Z,4.55
2023-03-03T21:00:25.467Z,5.80
2023-03-03T21:05:29.419Z,8.32
2023-03-03T21:10:35.816Z,4.97
2023-03-03T21:15:38.652Z,4.50
2023-03-03T21:20:41.227Z,5.63
2023-03-03T21:25:46.110Z,3.25
2023-03-03T21:31:15.651Z,3.35
2023-03-03T21:36:21.115Z,7.85
2023-03-03T21:41:23.630Z,5.28
2023-03-03T21:46:26.381Z,4.97
2023-03-03T21:51:29.103Z,5.72
2023-03-03T21:56:31.771Z,5.93
2023-03-03T22:01:35.893Z,5.43
2023-03-03T22:06:40.502Z,6.20
2023-03-03T22:11:43.019Z,4.97
2023-03-03T22:16:45.799Z,6.05
2023-03-03T22:21:48.300Z,3.65
2023-03-03T22:26:50.821Z,3.55
2023-03-03T22:31:53.299Z,5.63
2023-03-03T22:36:56.230Z,5.93
2023-03-03T22:41:58.802Z,5.40
2023-03-03T22:47:01.399Z,5.95
2023-03-03T22:52:04.201Z,6.20
2023-03-03T22:57:06.721Z,6.80
2023-03-03T23:02:09.340Z,7.00
2023-03-03T23:07:12.066Z,8.02
2023-03-03T23:12:14.581Z,7.18
2023-03-03T23:17:17.415Z,4.88
2023-03-03T23:22:19.995Z,6.22
2023-03-03T23:27:22.583Z,5.75
2023-03-03T23:32:26.291Z,4.95
2023-03-03T23:37:29.068Z,9.27
2023-03-03T23:42:31.679Z,4.93
2023-03-03T23:47:34.268Z,8.98
2023-03-03T23:52:37.529Z,8.38
2023-03-03T23:57:40.103Z,4.90
